Página principal
METAR-TAF:

METAR-TAF

Aeroportos :

Kunming, China

latitude: 25-01N, longitude: 102-41E, altura: 1892 m

Observação actual do tempo

O boletim foi feito há 1 hora e 4 minutos, às 18:00 UTC
Vento 6 kt de norte
Temperatura 17°C
Humidade 88%
Pressão 1022 hPa
Visibilidade 10 km ou mais
Nuvens dispersasa uma altura de 2300 ft

METAR: ZPPP 281800Z 36003MPS 9999 SCT023 17/15 Q1022 NOSIG

Hora: 03:04 (19:04 UTC)

Previsão

O boletim foi feito há 6 horas e 1 minutos, às 13:03 UTC
Previsão válida de 28 às 18 UTC a 29 às 18 UTC
Vento 8 kt de es-nordeste
Visibilidade 10 km ou mais
Nuvens dispersasa uma altura de 2600 ft

TAF: ZPPP 281303Z 2818/2918 06004MPS 9999 SCT026 TX28/2908Z TN15/2823Z

Observações e previsões do tempo de mais de 4000 aeroportos (mensagens METAR e TAF).

As estações disponíveis são os pontos amarelos e vermelhos sobre o mapa.

Mova o rato sobre o mapa para ver o nome da estação.

Depois clique no ponto para visualizar as observações e previsões meteorológicas.

Para alterar o mapa : clique nos botões verdes com uma cruz preta para aumentar o zoom; no botão verde com uma pitada de zoom; ou nas setas verdes para mapas adjacentes.


METAR-TAF: